You are not logged in, Click here to log in
ICAO: KRDU Country: Raleigh/Durham
Latitude: 35.8776 Longitude: -78.7875
Total Arrivals: 1 Total Departures: 1
Latest Arrival: AA1207K (KJFK-KRDU)Meng Sheng. Chan Latest Departure: A8A57 (KRDU-KORD)Meng Sheng. Chan
Scenery: http://en.wikipedia.org/wiki/Richmond_County_Airport
METAR : KRDU 261051Z 25004KT 7SM FEW100 FEW250 23/22 A3011 RMK AO2 SLP189 T02280222 $

Raleigh Durham International Airport